sensor_id;sensor_type;location;lat;lon;timestamp;temperature;humidity
70676;DHT22;59069;52.242;20.900;2023-12-28T00:01:19;1.38;86.65
70676;DHT22;59069;52.242;20.900;2023-12-28T00:03:44;1.37;86.62
70676;DHT22;59069;52.242;20.900;2023-12-28T00:06:09;1.34;86.59
70676;DHT22;59069;52.242;20.900;2023-12-28T00:08:35;1.38;86.65
70676;DHT22;59069;52.242;20.900;2023-12-28T00:11:00;1.34;86.67
70676;DHT22;59069;52.242;20.900;2023-12-28T00:13:26;1.32;86.87
70676;DHT22;59069;52.242;20.900;2023-12-28T00:15:51;1.35;86.94
70676;DHT22;59069;52.242;20.900;2023-12-28T00:18:17;1.37;87.02
70676;DHT22;59069;52.242;20.900;2023-12-28T00:20:42;1.40;86.98
70676;DHT22;59069;52.242;20.900;2023-12-28T00:23:08;1.45;86.90
70676;DHT22;59069;52.242;20.900;2023-12-28T00:25:33;1.44;86.78
70676;DHT22;59069;52.242;20.900;2023-12-28T00:27:59;1.44;86.68
70676;DHT22;59069;52.242;20.900;2023-12-28T00:30:24;1.45;86.72
70676;DHT22;59069;52.242;20.900;2023-12-28T00:32:50;1.45;86.82
70676;DHT22;59069;52.242;20.900;2023-12-28T00:35:15;1.42;86.83
70676;DHT22;59069;52.242;20.900;2023-12-28T00:37:41;1.41;86.90
70676;DHT22;59069;52.242;20.900;2023-12-28T00:40:07;1.38;87.03
70676;DHT22;59069;52.242;20.900;2023-12-28T00:42:32;1.37;86.95
70676;DHT22;59069;52.242;20.900;2023-12-28T00:44:58;1.35;86.89
70676;DHT22;59069;52.242;20.900;2023-12-28T00:47:24;1.35;86.94
70676;DHT22;59069;52.242;20.900;2023-12-28T00:49:50;1.34;86.93
70676;DHT22;59069;52.242;20.900;2023-12-28T00:52:16;1.31;86.95
70676;DHT22;59069;52.242;20.900;2023-12-28T00:54:41;1.27;86.95
70676;DHT22;59069;52.242;20.900;2023-12-28T00:57:07;1.23;87.09
70676;DHT22;59069;52.242;20.900;2023-12-28T00:59:32;1.21;87.07
70676;DHT22;59069;52.242;20.900;2023-12-28T01:01:58;1.14;87.15
70676;DHT22;59069;52.242;20.900;2023-12-28T01:04:23;1.11;87.19
70676;DHT22;59069;52.242;20.900;2023-12-28T01:06:49;1.07;87.13
70676;DHT22;59069;52.242;20.900;2023-12-28T01:09:15;1.05;87.25
70676;DHT22;59069;52.242;20.900;2023-12-28T01:11:40;1.01;87.45
70676;DHT22;59069;52.242;20.900;2023-12-28T01:14:06;1.00;87.60
70676;DHT22;59069;52.242;20.900;2023-12-28T01:16:31;0.99;87.64
70676;DHT22;59069;52.242;20.900;2023-12-28T01:18:57;0.99;87.65
70676;DHT22;59069;52.242;20.900;2023-12-28T01:21:23;0.99;87.66
70676;DHT22;59069;52.242;20.900;2023-12-28T01:23:50;0.97;87.71
70676;DHT22;59069;52.242;20.900;2023-12-28T01:26:16;1.00;87.66
70676;DHT22;59069;52.242;20.900;2023-12-28T01:28:42;0.99;87.72
70676;DHT22;59069;52.242;20.900;2023-12-28T01:31:08;0.97;87.68
70676;DHT22;59069;52.242;20.900;2023-12-28T01:33:34;0.93;87.80
70676;DHT22;59069;52.242;20.900;2023-12-28T01:36:01;0.96;87.85
70676;DHT22;59069;52.242;20.900;2023-12-28T01:38:27;0.94;87.90
70676;DHT22;59069;52.242;20.900;2023-12-28T01:40:53;0.96;87.86
70676;DHT22;59069;52.242;20.900;2023-12-28T01:43:18;0.94;87.82
70676;DHT22;59069;52.242;20.900;2023-12-28T01:45:44;0.94;87.91
70676;DHT22;59069;52.242;20.900;2023-12-28T01:48:10;0.96;87.95
70676;DHT22;59069;52.242;20.900;2023-12-28T01:50:37;0.94;87.97
70676;DHT22;59069;52.242;20.900;2023-12-28T01:53:03;0.97;87.99
70676;DHT22;59069;52.242;20.900;2023-12-28T01:55:30;0.94;87.99
70676;DHT22;59069;52.242;20.900;2023-12-28T01:57:57;0.99;87.96
70676;DHT22;59069;52.242;20.900;2023-12-28T02:00:24;0.99;87.95
70676;DHT22;59069;52.242;20.900;2023-12-28T02:02:50;0.97;87.86
70676;DHT22;59069;52.242;20.900;2023-12-28T02:05:16;1.00;87.80
70676;DHT22;59069;52.242;20.900;2023-12-28T02:07:42;1.01;87.84
70676;DHT22;59069;52.242;20.900;2023-12-28T02:10:08;1.01;87.85
70676;DHT22;59069;52.242;20.900;2023-12-28T02:12:33;1.04;87.83
70676;DHT22;59069;52.242;20.900;2023-12-28T02:14:59;1.04;87.83
70676;DHT22;59069;52.242;20.900;2023-12-28T02:20:01;1.07;87.66
70676;DHT22;59069;52.242;20.900;2023-12-28T02:22:32;1.08;87.68
70676;DHT22;59069;52.242;20.900;2023-12-28T02:25:10;1.11;87.87
70676;DHT22;59069;52.242;20.900;2023-12-28T02:30:06;1.23;87.88
70676;DHT22;59069;52.242;20.900;2023-12-28T02:35:40;1.37;87.57
70676;DHT22;59069;52.242;20.900;2023-12-28T02:38:09;1.45;87.30
70676;DHT22;59069;52.242;20.900;2023-12-28T02:40:40;1.49;86.97
70676;DHT22;59069;52.242;20.900;2023-12-28T02:43:06;1.54;86.73
70676;DHT22;59069;52.242;20.900;2023-12-28T02:45:32;1.56;86.57
70676;DHT22;59069;52.242;20.900;2023-12-28T02:47:58;1.59;86.20
70676;DHT22;59069;52.242;20.900;2023-12-28T02:50:23;1.61;85.87
70676;DHT22;59069;52.242;20.900;2023-12-28T02:52:49;1.59;85.67
70676;DHT22;59069;52.242;20.900;2023-12-28T02:55:14;1.62;85.58
70676;DHT22;59069;52.242;20.900;2023-12-28T02:57:40;1.62;85.40
70676;DHT22;59069;52.242;20.900;2023-12-28T03:00:06;1.62;85.18
70676;DHT22;59069;52.242;20.900;2023-12-28T03:02:34;1.62;84.96
70676;DHT22;59069;52.242;20.900;2023-12-28T03:05:00;1.65;84.92
70676;DHT22;59069;52.242;20.900;2023-12-28T03:07:26;1.65;84.74
70676;DHT22;59069;52.242;20.900;2023-12-28T03:09:51;1.66;84.58
70676;DHT22;59069;52.242;20.900;2023-12-28T03:12:16;1.66;84.41
70676;DHT22;59069;52.242;20.900;2023-12-28T03:14:42;1.65;84.27
70676;DHT22;59069;52.242;20.900;2023-12-28T03:17:08;1.65;84.11
70676;DHT22;59069;52.242;20.900;2023-12-28T03:19:36;1.63;84.02
70676;DHT22;59069;52.242;20.900;2023-12-28T03:22:01;1.62;84.00
70676;DHT22;59069;52.242;20.900;2023-12-28T03:24:27;1.59;83.83
70676;DHT22;59069;52.242;20.900;2023-12-28T03:26:52;1.59;83.80
70676;DHT22;59069;52.242;20.900;2023-12-28T03:29:18;1.59;83.76
70676;DHT22;59069;52.242;20.900;2023-12-28T03:31:43;1.59;83.73
70676;DHT22;59069;52.242;20.900;2023-12-28T03:34:09;1.58;83.73
70676;DHT22;59069;52.242;20.900;2023-12-28T03:36:35;1.58;83.69
70676;DHT22;59069;52.242;20.900;2023-12-28T03:39:00;1.56;83.59
70676;DHT22;59069;52.242;20.900;2023-12-28T03:41:25;1.55;83.61
70676;DHT22;59069;52.242;20.900;2023-12-28T03:43:51;1.55;83.62
70676;DHT22;59069;52.242;20.900;2023-12-28T03:46:16;1.54;83.58
70676;DHT22;59069;52.242;20.900;2023-12-28T03:48:42;1.52;83.56
70676;DHT22;59069;52.242;20.900;2023-12-28T03:51:07;1.54;83.46
70676;DHT22;59069;52.242;20.900;2023-12-28T03:53:33;1.54;83.39
70676;DHT22;59069;52.242;20.900;2023-12-28T03:55:58;1.54;83.33
70676;DHT22;59069;52.242;20.900;2023-12-28T03:58:24;1.56;83.27
70676;DHT22;59069;52.242;20.900;2023-12-28T04:00:49;1.55;83.21
70676;DHT22;59069;52.242;20.900;2023-12-28T04:03:15;1.52;83.10
70676;DHT22;59069;52.242;20.900;2023-12-28T04:05:40;1.49;83.11
70676;DHT22;59069;52.242;20.900;2023-12-28T04:08:07;1.51;83.06
70676;DHT22;59069;52.242;20.900;2023-12-28T04:10:33;1.48;82.92
70676;DHT22;59069;52.242;20.900;2023-12-28T04:12:59;1.48;82.94
70676;DHT22;59069;52.242;20.900;2023-12-28T04:15:28;1.48;82.83
70676;DHT22;59069;52.242;20.900;2023-12-28T04:17:54;1.47;82.67
70676;DHT22;59069;52.242;20.900;2023-12-28T04:20:19;1.45;82.58
70676;DHT22;59069;52.242;20.900;2023-12-28T04:22:45;1.45;82.60
70676;DHT22;59069;52.242;20.900;2023-12-28T04:25:11;1.47;82.43
70676;DHT22;59069;52.242;20.900;2023-12-28T04:27:38;1.47;82.27
70676;DHT22;59069;52.242;20.900;2023-12-28T04:30:04;1.49;82.13
70676;DHT22;59069;52.242;20.900;2023-12-28T04:32:33;1.47;82.08
70676;DHT22;59069;52.242;20.900;2023-12-28T04:34:58;1.44;81.91
70676;DHT22;59069;52.242;20.900;2023-12-28T04:37:24;1.47;81.90
70676;DHT22;59069;52.242;20.900;2023-12-28T04:39:52;1.48;81.77
70676;DHT22;59069;52.242;20.900;2023-12-28T04:42:18;1.45;81.72
70676;DHT22;59069;52.242;20.900;2023-12-28T04:44:44;1.47;81.63
70676;DHT22;59069;52.242;20.900;2023-12-28T04:47:09;1.47;81.53
70676;DHT22;59069;52.242;20.900;2023-12-28T04:49:35;1.42;81.51
70676;DHT22;59069;52.242;20.900;2023-12-28T04:52:00;1.42;81.56
70676;DHT22;59069;52.242;20.900;2023-12-28T04:54:26;1.41;81.54
70676;DHT22;59069;52.242;20.900;2023-12-28T04:56:51;1.38;81.51
70676;DHT22;59069;52.242;20.900;2023-12-28T04:59:20;1.41;81.49
70676;DHT22;59069;52.242;20.900;2023-12-28T05:01:46;1.37;81.45
70676;DHT22;59069;52.242;20.900;2023-12-28T05:04:11;1.40;81.50
70676;DHT22;59069;52.242;20.900;2023-12-28T05:06:37;1.37;81.40
70676;DHT22;59069;52.242;20.900;2023-12-28T05:09:03;1.38;81.40
70676;DHT22;59069;52.242;20.900;2023-12-28T05:11:29;1.38;81.36
70676;DHT22;59069;52.242;20.900;2023-12-28T05:13:54;1.38;81.41
70676;DHT22;59069;52.242;20.900;2023-12-28T05:16:20;1.40;81.35
70676;DHT22;59069;52.242;20.900;2023-12-28T05:18:46;1.38;81.38
70676;DHT22;59069;52.242;20.900;2023-12-28T05:21:12;1.41;81.30
70676;DHT22;59069;52.242;20.900;2023-12-28T05:23:38;1.40;81.20
70676;DHT22;59069;52.242;20.900;2023-12-28T05:26:04;1.42;81.16
70676;DHT22;59069;52.242;20.900;2023-12-28T05:28:29;1.41;81.10
70676;DHT22;59069;52.242;20.900;2023-12-28T05:30:55;1.42;81.10
70676;DHT22;59069;52.242;20.900;2023-12-28T05:33:21;1.41;81.03
70676;DHT22;59069;52.242;20.900;2023-12-28T05:35:48;1.44;80.92
70676;DHT22;59069;52.242;20.900;2023-12-28T05:38:13;1.41;80.88
70676;DHT22;59069;52.242;20.900;2023-12-28T05:40:39;1.41;80.85
70676;DHT22;59069;52.242;20.900;2023-12-28T05:43:04;1.40;80.87
70676;DHT22;59069;52.242;20.900;2023-12-28T05:45:29;1.37;80.89
70676;DHT22;59069;52.242;20.900;2023-12-28T05:47:55;1.37;80.93
70676;DHT22;59069;52.242;20.900;2023-12-28T05:50:20;1.38;80.91
70676;DHT22;59069;52.242;20.900;2023-12-28T05:52:46;1.34;80.99
70676;DHT22;59069;52.242;20.900;2023-12-28T05:55:12;1.32;81.03
70676;DHT22;59069;52.242;20.900;2023-12-28T05:57:37;1.34;81.10
70676;DHT22;59069;52.242;20.900;2023-12-28T06:00:03;1.34;81.06
70676;DHT22;59069;52.242;20.900;2023-12-28T06:02:29;1.35;81.09
70676;DHT22;59069;52.242;20.900;2023-12-28T06:04:55;1.34;81.08
70676;DHT22;59069;52.242;20.900;2023-12-28T06:07:20;1.32;80.97
70676;DHT22;59069;52.242;20.900;2023-12-28T06:09:46;1.32;81.07
70676;DHT22;59069;52.242;20.900;2023-12-28T06:12:12;1.32;81.24
70676;DHT22;59069;52.242;20.900;2023-12-28T06:14:37;1.32;81.11
70676;DHT22;59069;52.242;20.900;2023-12-28T06:17:03;1.32;81.20
70676;DHT22;59069;52.242;20.900;2023-12-28T06:19:29;1.35;81.20
70676;DHT22;59069;52.242;20.900;2023-12-28T06:21:55;1.31;81.29
70676;DHT22;59069;52.242;20.900;2023-12-28T06:24:21;1.32;81.27
70676;DHT22;59069;52.242;20.900;2023-12-28T06:26:46;1.38;81.32
70676;DHT22;59069;52.242;20.900;2023-12-28T06:29:12;1.40;81.33
70676;DHT22;59069;52.242;20.900;2023-12-28T06:31:37;1.40;81.39
70676;DHT22;59069;52.242;20.900;2023-12-28T06:34:03;1.41;81.42
70676;DHT22;59069;52.242;20.900;2023-12-28T06:36:29;1.42;81.38
70676;DHT22;59069;52.242;20.900;2023-12-28T06:38:56;1.41;81.37
70676;DHT22;59069;52.242;20.900;2023-12-28T06:41:25;1.44;81.40
70676;DHT22;59069;52.242;20.900;2023-12-28T06:43:51;1.47;81.30
70676;DHT22;59069;52.242;20.900;2023-12-28T06:46:17;1.45;81.44
70676;DHT22;59069;52.242;20.900;2023-12-28T06:48:43;1.48;81.44
70676;DHT22;59069;52.242;20.900;2023-12-28T06:51:10;1.51;81.38
70676;DHT22;59069;52.242;20.900;2023-12-28T06:53:41;1.52;81.51
70676;DHT22;59069;52.242;20.900;2023-12-28T06:56:06;1.56;81.45
70676;DHT22;59069;52.242;20.900;2023-12-28T06:58:32;1.58;81.50
70676;DHT22;59069;52.242;20.900;2023-12-28T07:00:58;1.58;81.47
70676;DHT22;59069;52.242;20.900;2023-12-28T07:03:24;1.59;81.46
70676;DHT22;59069;52.242;20.900;2023-12-28T07:05:50;1.66;81.45
70676;DHT22;59069;52.242;20.900;2023-12-28T07:08:16;1.65;81.53
70676;DHT22;59069;52.242;20.900;2023-12-28T07:10:42;1.72;81.53
70676;DHT22;59069;52.242;20.900;2023-12-28T07:13:07;1.73;81.50
70676;DHT22;59069;52.242;20.900;2023-12-28T07:15:33;1.78;81.49
70676;DHT22;59069;52.242;20.900;2023-12-28T07:17:59;1.83;81.54
70676;DHT22;59069;52.242;20.900;2023-12-28T07:20:24;1.87;81.46
70676;DHT22;59069;52.242;20.900;2023-12-28T07:22:50;1.92;81.45
70676;DHT22;59069;52.242;20.900;2023-12-28T07:25:16;1.96;81.46
70676;DHT22;59069;52.242;20.900;2023-12-28T07:27:41;2.03;81.46
70676;DHT22;59069;52.242;20.900;2023-12-28T07:30:07;2.07;81.41
70676;DHT22;59069;52.242;20.900;2023-12-28T07:32:33;2.14;81.40
70676;DHT22;59069;52.242;20.900;2023-12-28T07:34:58;2.23;81.42
70676;DHT22;59069;52.242;20.900;2023-12-28T07:37:24;2.27;81.38
70676;DHT22;59069;52.242;20.900;2023-12-28T07:39:50;2.37;81.30
70676;DHT22;59069;52.242;20.900;2023-12-28T07:42:15;2.41;81.23
70676;DHT22;59069;52.242;20.900;2023-12-28T07:44:41;2.47;81.15
70676;DHT22;59069;52.242;20.900;2023-12-28T07:47:06;2.54;81.12
70676;DHT22;59069;52.242;20.900;2023-12-28T07:49:32;2.60;81.00
70676;DHT22;59069;52.242;20.900;2023-12-28T07:51:57;2.68;80.99
70676;DHT22;59069;52.242;20.900;2023-12-28T07:54:23;2.77;80.99
70676;DHT22;59069;52.242;20.900;2023-12-28T07:56:49;2.82;81.09
70676;DHT22;59069;52.242;20.900;2023-12-28T07:59:14;2.92;80.98
70676;DHT22;59069;52.242;20.900;2023-12-28T08:01:40;3.05;80.81
70676;DHT22;59069;52.242;20.900;2023-12-28T08:04:05;3.15;80.71
70676;DHT22;59069;52.242;20.900;2023-12-28T08:06:31;3.27;80.66
70676;DHT22;59069;52.242;20.900;2023-12-28T08:08:58;3.39;80.56
70676;DHT22;59069;52.242;20.900;2023-12-28T08:11:28;3.46;80.34
70676;DHT22;59069;52.242;20.900;2023-12-28T08:13:54;3.56;80.06
70676;DHT22;59069;52.242;20.900;2023-12-28T08:16:20;3.64;79.82
70676;DHT22;59069;52.242;20.900;2023-12-28T08:18:45;3.71;79.63
70676;DHT22;59069;52.242;20.900;2023-12-28T08:21:11;3.80;79.57
70676;DHT22;59069;52.242;20.900;2023-12-28T08:23:36;3.91;79.43
70676;DHT22;59069;52.242;20.900;2023-12-28T08:26:02;3.97;79.34
70676;DHT22;59069;52.242;20.900;2023-12-28T08:28:28;4.05;79.16
70676;DHT22;59069;52.242;20.900;2023-12-28T08:30:54;4.18;78.98
70676;DHT22;59069;52.242;20.900;2023-12-28T08:33:21;4.24;78.80
70676;DHT22;59069;52.242;20.900;2023-12-28T08:35:46;4.34;78.67
70676;DHT22;59069;52.242;20.900;2023-12-28T08:38:12;4.45;78.61
70676;DHT22;59069;52.242;20.900;2023-12-28T08:40:37;4.57;78.46
70676;DHT22;59069;52.242;20.900;2023-12-28T08:43:03;4.65;78.38
70676;DHT22;59069;52.242;20.900;2023-12-28T08:45:30;4.79;78.18
70676;DHT22;59069;52.242;20.900;2023-12-28T08:47:55;4.93;77.92
70676;DHT22;59069;52.242;20.900;2023-12-28T08:50:21;5.10;77.60
70676;DHT22;59069;52.242;20.900;2023-12-28T08:52:46;5.20;77.35
70676;DHT22;59069;52.242;20.900;2023-12-28T08:55:12;5.32;77.11
70676;DHT22;59069;52.242;20.900;2023-12-28T08:57:38;5.45;76.77
70676;DHT22;59069;52.242;20.900;2023-12-28T09:00:06;5.61;76.47
70676;DHT22;59069;52.242;20.900;2023-12-28T09:02:33;5.73;76.04
70676;DHT22;59069;52.242;20.900;2023-12-28T09:04:58;5.88;75.63
70676;DHT22;59069;52.242;20.900;2023-12-28T09:07:24;6.05;75.21
70676;DHT22;59069;52.242;20.900;2023-12-28T09:09:50;6.19;74.82
70676;DHT22;59069;52.242;20.900;2023-12-28T09:12:16;6.31;74.19
70676;DHT22;59069;52.242;20.900;2023-12-28T09:14:41;6.48;73.82
70676;DHT22;59069;52.242;20.900;2023-12-28T09:17:06;6.60;73.25
70676;DHT22;59069;52.242;20.900;2023-12-28T09:19:32;6.74;72.70
70676;DHT22;59069;52.242;20.900;2023-12-28T09:21:58;6.82;72.09
70676;DHT22;59069;52.242;20.900;2023-12-28T09:24:23;6.92;71.41
70676;DHT22;59069;52.242;20.900;2023-12-28T09:26:49;6.98;70.92
70676;DHT22;59069;52.242;20.900;2023-12-28T09:29:14;7.03;70.43
70676;DHT22;59069;52.242;20.900;2023-12-28T09:31:40;7.08;69.86
70676;DHT22;59069;52.242;20.900;2023-12-28T09:34:05;7.11;69.53
70676;DHT22;59069;52.242;20.900;2023-12-28T09:36:31;7.15;69.32
70676;DHT22;59069;52.242;20.900;2023-12-28T09:38:57;7.16;69.03
70676;DHT22;59069;52.242;20.900;2023-12-28T09:41:26;7.19;68.80
70676;DHT22;59069;52.242;20.900;2023-12-28T09:43:54;7.20;68.89
70676;DHT22;59069;52.242;20.900;2023-12-28T09:46:24;7.22;68.95
70676;DHT22;59069;52.242;20.900;2023-12-28T09:48:51;7.22;69.29
70676;DHT22;59069;52.242;20.900;2023-12-28T09:51:19;7.18;69.73
70676;DHT22;59069;52.242;20.900;2023-12-28T09:53:45;7.20;70.12
70676;DHT22;59069;52.242;20.900;2023-12-28T09:56:12;7.19;70.31
70676;DHT22;59069;52.242;20.900;2023-12-28T09:58:39;7.16;70.59
70676;DHT22;59069;52.242;20.900;2023-12-28T10:01:06;7.13;70.72
70676;DHT22;59069;52.242;20.900;2023-12-28T10:03:32;7.12;70.84
70676;DHT22;59069;52.242;20.900;2023-12-28T10:05:58;7.12;70.80
70676;DHT22;59069;52.242;20.900;2023-12-28T10:08:23;7.11;70.88
70676;DHT22;59069;52.242;20.900;2023-12-28T10:10:50;7.11;70.86
70676;DHT22;59069;52.242;20.900;2023-12-28T10:13:20;7.09;70.88
70676;DHT22;59069;52.242;20.900;2023-12-28T10:15:46;7.09;70.84
70676;DHT22;59069;52.242;20.900;2023-12-28T10:18:12;7.06;71.05
70676;DHT22;59069;52.242;20.900;2023-12-28T10:20:38;7.09;70.99
70676;DHT22;59069;52.242;20.900;2023-12-28T10:23:04;7.09;71.03
70676;DHT22;59069;52.242;20.900;2023-12-28T10:25:32;7.09;71.13
70676;DHT22;59069;52.242;20.900;2023-12-28T10:27:57;7.12;71.25
70676;DHT22;59069;52.242;20.900;2023-12-28T10:30:24;7.12;71.32
70676;DHT22;59069;52.242;20.900;2023-12-28T10:32:49;7.15;71.34
70676;DHT22;59069;52.242;20.900;2023-12-28T10:35:15;7.19;71.40
70676;DHT22;59069;52.242;20.900;2023-12-28T10:37:42;7.23;71.42
70676;DHT22;59069;52.242;20.900;2023-12-28T10:40:12;7.30;71.39
70676;DHT22;59069;52.242;20.900;2023-12-28T10:45:10;7.36;71.42
70676;DHT22;59069;52.242;20.900;2023-12-28T10:47:38;7.37;71.43
70676;DHT22;59069;52.242;20.900;2023-12-28T10:50:05;7.37;71.50
70676;DHT22;59069;52.242;20.900;2023-12-28T10:52:32;7.36;71.62
70676;DHT22;59069;52.242;20.900;2023-12-28T10:55:46;7.33;71.69
70676;DHT22;59069;52.242;20.900;2023-12-28T10:58:10;7.29;71.76
70676;DHT22;59069;52.242;20.900;2023-12-28T11:00:41;7.23;72.11
70676;DHT22;59069;52.242;20.900;2023-12-28T11:03:11;7.22;72.63
70676;DHT22;59069;52.242;20.900;2023-12-28T11:05:37;7.18;73.07
70676;DHT22;59069;52.242;20.900;2023-12-28T11:08:06;7.19;73.59
70676;DHT22;59069;52.242;20.900;2023-12-28T11:10:33;7.13;74.20
70676;DHT22;59069;52.242;20.900;2023-12-28T11:13:00;7.08;74.95
70676;DHT22;59069;52.242;20.900;2023-12-28T11:15:26;7.06;75.56
70676;DHT22;59069;52.242;20.900;2023-12-28T11:17:52;6.99;76.07
70676;DHT22;59069;52.242;20.900;2023-12-28T11:20:18;6.92;76.48
70676;DHT22;59069;52.242;20.900;2023-12-28T11:22:44;6.89;76.90
70676;DHT22;59069;52.242;20.900;2023-12-28T11:25:17;6.91;77.30
70676;DHT22;59069;52.242;20.900;2023-12-28T11:27:46;6.85;77.70
70676;DHT22;59069;52.242;20.900;2023-12-28T11:30:12;6.87;77.95
70676;DHT22;59069;52.242;20.900;2023-12-28T11:32:40;6.87;78.24
70676;DHT22;59069;52.242;20.900;2023-12-28T11:35:08;6.87;78.46
70676;DHT22;59069;52.242;20.900;2023-12-28T11:37:38;6.89;78.75
70676;DHT22;59069;52.242;20.900;2023-12-28T11:40:13;6.88;79.19
70676;DHT22;59069;52.242;20.900;2023-12-28T11:42:52;6.89;79.59
70676;DHT22;59069;52.242;20.900;2023-12-28T11:45:22;6.87;79.98
70676;DHT22;59069;52.242;20.900;2023-12-28T11:47:59;6.89;80.39
70676;DHT22;59069;52.242;20.900;2023-12-28T11:50:26;6.93;80.53
70676;DHT22;59069;52.242;20.900;2023-12-28T11:52:51;6.95;80.53
70676;DHT22;59069;52.242;20.900;2023-12-28T11:55:23;6.99;80.44
70676;DHT22;59069;52.242;20.900;2023-12-28T11:57:49;7.02;80.42
70676;DHT22;59069;52.242;20.900;2023-12-28T12:00:15;7.03;80.32
70676;DHT22;59069;52.242;20.900;2023-12-28T12:02:43;7.09;80.34
70676;DHT22;59069;52.242;20.900;2023-12-28T12:05:10;7.12;80.27
70676;DHT22;59069;52.242;20.900;2023-12-28T12:07:37;7.13;80.26
70676;DHT22;59069;52.242;20.900;2023-12-28T12:10:02;7.19;80.34
70676;DHT22;59069;52.242;20.900;2023-12-28T12:12:28;7.19;80.41
70676;DHT22;59069;52.242;20.900;2023-12-28T12:14:54;7.25;80.54
70676;DHT22;59069;52.242;20.900;2023-12-28T12:17:21;7.26;80.55
70676;DHT22;59069;52.242;20.900;2023-12-28T12:19:47;7.30;80.69
70676;DHT22;59069;52.242;20.900;2023-12-28T12:22:16;7.36;80.83
70676;DHT22;59069;52.242;20.900;2023-12-28T12:24:44;7.39;80.68
70676;DHT22;59069;52.242;20.900;2023-12-28T12:27:09;7.37;80.57
70676;DHT22;59069;52.242;20.900;2023-12-28T12:29:35;7.37;80.57
70676;DHT22;59069;52.242;20.900;2023-12-28T12:32:00;7.37;80.66
70676;DHT22;59069;52.242;20.900;2023-12-28T12:34:28;7.39;80.74
70676;DHT22;59069;52.242;20.900;2023-12-28T12:36:54;7.36;80.68
70676;DHT22;59069;52.242;20.900;2023-12-28T12:39:20;7.42;80.59
70676;DHT22;59069;52.242;20.900;2023-12-28T12:41:49;7.43;80.49
70676;DHT22;59069;52.242;20.900;2023-12-28T12:44:14;7.43;80.35
70676;DHT22;59069;52.242;20.900;2023-12-28T12:46:42;7.44;80.14
70676;DHT22;59069;52.242;20.900;2023-12-28T12:49:08;7.47;80.00
70676;DHT22;59069;52.242;20.900;2023-12-28T12:51:33;7.50;79.77
70676;DHT22;59069;52.242;20.900;2023-12-28T12:54:00;7.53;79.53
70676;DHT22;59069;52.242;20.900;2023-12-28T12:56:26;7.57;79.28
70676;DHT22;59069;52.242;20.900;2023-12-28T12:58:53;7.56;79.07
70676;DHT22;59069;52.242;20.900;2023-12-28T13:01:19;7.56;78.87
70676;DHT22;59069;52.242;20.900;2023-12-28T13:03:45;7.60;78.75
70676;DHT22;59069;52.242;20.900;2023-12-28T13:06:11;7.59;78.54
70676;DHT22;59069;52.242;20.900;2023-12-28T13:08:36;7.60;78.48
70676;DHT22;59069;52.242;20.900;2023-12-28T13:11:02;7.62;78.49
70676;DHT22;59069;52.242;20.900;2023-12-28T13:13:27;7.63;78.64
70676;DHT22;59069;52.242;20.900;2023-12-28T13:15:53;7.64;78.74
70676;DHT22;59069;52.242;20.900;2023-12-28T13:18:18;7.64;78.83
70676;DHT22;59069;52.242;20.900;2023-12-28T13:20:44;7.67;78.92
70676;DHT22;59069;52.242;20.900;2023-12-28T13:23:11;7.70;78.94
70676;DHT22;59069;52.242;20.900;2023-12-28T13:25:37;7.70;78.90
70676;DHT22;59069;52.242;20.900;2023-12-28T13:28:02;7.73;78.85
70676;DHT22;59069;52.242;20.900;2023-12-28T13:30:28;7.74;78.81
70676;DHT22;59069;52.242;20.900;2023-12-28T13:32:55;7.78;78.64
70676;DHT22;59069;52.242;20.900;2023-12-28T13:35:23;7.80;78.49
70676;DHT22;59069;52.242;20.900;2023-12-28T13:37:49;7.81;78.31
70676;DHT22;59069;52.242;20.900;2023-12-28T13:40:14;7.85;78.17
70676;DHT22;59069;52.242;20.900;2023-12-28T13:42:41;7.88;78.06
70676;DHT22;59069;52.242;20.900;2023-12-28T13:45:06;7.91;77.87
70676;DHT22;59069;52.242;20.900;2023-12-28T13:47:32;7.91;77.78
70676;DHT22;59069;52.242;20.900;2023-12-28T13:49:57;7.93;77.70
70676;DHT22;59069;52.242;20.900;2023-12-28T13:52:23;7.95;77.62
70676;DHT22;59069;52.242;20.900;2023-12-28T13:54:49;7.98;77.56
70676;DHT22;59069;52.242;20.900;2023-12-28T13:57:15;7.97;77.55
70676;DHT22;59069;52.242;20.900;2023-12-28T13:59:40;7.99;77.51
70676;DHT22;59069;52.242;20.900;2023-12-28T14:02:06;8.01;77.47
70676;DHT22;59069;52.242;20.900;2023-12-28T14:04:31;8.05;77.44
70676;DHT22;59069;52.242;20.900;2023-12-28T14:06:57;8.04;77.32
70676;DHT22;59069;52.242;20.900;2023-12-28T14:09:22;8.07;77.22
70676;DHT22;59069;52.242;20.900;2023-12-28T14:11:48;8.09;77.06
70676;DHT22;59069;52.242;20.900;2023-12-28T14:14:14;8.08;76.93
70676;DHT22;59069;52.242;20.900;2023-12-28T14:16:40;8.08;76.80
70676;DHT22;59069;52.242;20.900;2023-12-28T14:19:05;8.11;76.66
70676;DHT22;59069;52.242;20.900;2023-12-28T14:21:36;8.11;76.62
70676;DHT22;59069;52.242;20.900;2023-12-28T14:24:02;8.15;76.47
70676;DHT22;59069;52.242;20.900;2023-12-28T14:26:27;8.15;76.38
70676;DHT22;59069;52.242;20.900;2023-12-28T14:28:53;8.14;76.31
70676;DHT22;59069;52.242;20.900;2023-12-28T14:31:19;8.18;76.24
70676;DHT22;59069;52.242;20.900;2023-12-28T14:33:45;8.18;76.10
70676;DHT22;59069;52.242;20.900;2023-12-28T14:36:34;8.21;75.97
70676;DHT22;59069;52.242;20.900;2023-12-28T14:39:03;8.22;75.84
70676;DHT22;59069;52.242;20.900;2023-12-28T14:41:30;8.25;75.70
70676;DHT22;59069;52.242;20.900;2023-12-28T14:43:56;8.25;75.52
70676;DHT22;59069;52.242;20.900;2023-12-28T14:46:25;8.28;75.48
70676;DHT22;59069;52.242;20.900;2023-12-28T14:48:51;8.25;75.20
70676;DHT22;59069;52.242;20.900;2023-12-28T14:51:17;8.22;75.05
70676;DHT22;59069;52.242;20.900;2023-12-28T14:53:43;8.21;75.17
70676;DHT22;59069;52.242;20.900;2023-12-28T14:56:08;8.20;75.29
70676;DHT22;59069;52.242;20.900;2023-12-28T14:58:34;8.20;75.19
70676;DHT22;59069;52.242;20.900;2023-12-28T15:00:59;8.14;74.93
70676;DHT22;59069;52.242;20.900;2023-12-28T15:03:25;8.12;74.86
70676;DHT22;59069;52.242;20.900;2023-12-28T15:05:51;8.09;74.74
70676;DHT22;59069;52.242;20.900;2023-12-28T15:08:17;8.07;74.74
70676;DHT22;59069;52.242;20.900;2023-12-28T15:10:42;8.01;74.77
70676;DHT22;59069;52.242;20.900;2023-12-28T15:13:09;7.97;74.86
70676;DHT22;59069;52.242;20.900;2023-12-28T15:15:35;7.91;74.99
70676;DHT22;59069;52.242;20.900;2023-12-28T15:18:01;7.87;75.18
70676;DHT22;59069;52.242;20.900;2023-12-28T15:20:27;7.84;75.15
70676;DHT22;59069;52.242;20.900;2023-12-28T15:22:53;7.75;75.33
70676;DHT22;59069;52.242;20.900;2023-12-28T15:25:18;7.71;75.37
70676;DHT22;59069;52.242;20.900;2023-12-28T15:27:45;7.66;75.48
70676;DHT22;59069;52.242;20.900;2023-12-28T15:30:11;7.59;75.80
70676;DHT22;59069;52.242;20.900;2023-12-28T15:32:40;7.53;75.89
70676;DHT22;59069;52.242;20.900;2023-12-28T15:35:06;7.47;76.10